Всё
Smithton Airport (Smithton, Tasmania) SIO Погода
|
Smithton, Tasmania (SIO / YSMI)
Безоблачно
Ветренно |
|
17 °C |
There is no TAF data available at SIO or any nearby airports.
Недавняя история METAR для SIO
| Date | Time (AEST) | Flight Rules | Wind Dir. | Speed | Type | Height AGL (ft) | Visibility | Temp (°C) | Temp (°F) | Dew Point (°C) | Dew Point (°F) | Rel. Humid. | Pressure | Density Altitude | Remarks |
|---|---|---|---|---|---|---|---|---|---|---|---|---|---|---|---|
| 03-май | 12:00 | n/a | 70° | 13 kt | Missing | 17° | 62° | 15° | 59° | 88% | 1009 mb | 395 ft | |||
| 03-май | 11:00 | n/a | 80° | 16 kt | Missing | 17° | 62° | 16° | 60° | 94% | 1010 mb | 366 ft | |||
| 03-май | 10:00 | n/a | 80° | 17 kt | Missing | 17° | 62° | 16° | 60° | 94% | 1010 mb | 366 ft | |||
| 03-май | 09:00 | n/a | 80° | 17 kt | Missing | 16° | 60° | 15° | 59° | 94% | 1012 mb | 187 ft | |||
| 03-май | 08:00 | n/a | 60° | 12 kt | Missing | 16° | 60° | 15° | 59° | 94% | 1012 mb | 187 ft | |||
| 03-май | 07:00 | n/a | 60° | 12 kt | Missing | 16° | 60° | 15° | 59° | 94% | 1012 mb | 187 ft | |||
| 03-май | 06:00 | n/a | 90° | 10 kt | Missing | 16° | 60° | 15° | 59° | 94% | 1012 mb | 187 ft | |||
| 03-май | 05:00 | n/a | 90° | 10 kt | Missing | 16° | 60° | 15° | 59° | 94% | 1012 mb | 187 ft | |||
| 03-май | 04:00 | n/a | 80° | 11 kt | Missing | 16° | 60° | 15° | 59° | 94% | 1012 mb | 187 ft | |||
| 03-май | 03:00 | n/a | 80° | 8 kt | Missing | 16° | 60° | 14° | 57° | 88% | 1013 mb | 157 ft | |||
| 03-май | 02:00 | n/a | 80° | 10 kt | Missing | 17° | 62° | 14° | 57° | 82% | 1013 mb | 277 ft | |||
| 03-май | 01:00 | n/a | 100° | 6 kt | Missing | 16° | 60° | 14° | 57° | 88% | 1014 mb | 128 ft | |||
| 03-май | 00:00 | n/a | 60° | 8 kt | Missing | 17° | 62° | 14° | 57° | 82% | 1014 mb | 248 ft | |||
| 02-май | 23:00 | n/a | 60° | 11 kt | Missing | 19° | 66° | 13° | 55° | 68% | 1015 mb | 458 ft | |||
| 02-май | 22:00 | n/a | 70° | 14 kt | Missing | 19° | 66° | 13° | 55° | 68% | 1014 mb | 488 ft | |||
| 02-май | 21:00 | n/a | 70° | 13 kt | Missing | 18° | 64° | 13° | 55° | 73% | 1014 mb | 368 ft | |||
| 02-май | 20:00 | n/a | 70° | 13 kt | Missing | 18° | 64° | 14° | 57° | 77% | 1014 mb | 368 ft | |||
| 02-май | 19:00 | n/a | 70° | 13 kt | Missing | 18° | 64° | 13° | 55° | 73% | 1014 mb | 368 ft | |||
| 02-май | 18:00 | n/a | 70° | 14 kt | Missing | 18° | 64° | 14° | 57° | 77% | 1014 mb | 368 ft | |||
| 02-май | 17:00 | n/a | 70° | 12 kt | Missing | 18° | 64° | 13° | 55° | 73% | 1014 mb | 368 ft | |||
| 02-май | 16:00 | n/a | 80° | 12 kt | Missing | 19° | 66° | 14° | 57° | 73% | 1015 mb | 458 ft | |||
| 02-май | 15:00 | n/a | 70° | 13 kt | Missing | 18° | 64° | 14° | 57° | 77% | 1015 mb | 338 ft | |||
| 02-май | 14:00 | n/a | 70° | 12 kt | Missing | 19° | 66° | 14° | 57° | 73% | 1015 mb | 458 ft | |||
| 02-май | 13:00 | n/a | 70° | 15 kt | Missing | 19° | 66° | 15° | 59° | 78% | 1016 mb | 429 ft |
Вход
| Ваш браузер не поддерживается.. обновите веб-браузер |
